Time;durP1;ratioP1;P1;durP2;ratioP2;P2;SDS_P1;SDS_P2;PMS_P1;PMS_P2;Temp;Humidity;BMP_temperature;BMP_pressure;BME280_temperature;BME280_humidity;BME280_pressure;Samples;Min_cycle;Max_cycle;Signal;HPM_P1;HPM_P2
2022/05/02 00:00:09;;;;;;;;;15.50;12.25;;;;;14.42;47.90;101703.88;4944302;28;45301;-69
2022/05/02 00:02:35;;;;;;;;;11.50;9.75;;;;;14.40;48.16;101696.03;4944194;28;45319;-68
2022/05/02 00:05:01;;;;;;;;;16.75;15.25;;;;;14.37;48.24;101700.63;4944441;28;45350;-69
2022/05/02 00:07:27;;;;;;;;;12.75;12.00;;;;;14.34;48.29;101688.44;4943684;28;45509;-69
2022/05/02 00:09:52;;;;;;;;;16.25;14.00;;;;;14.36;48.22;101691.00;4943178;28;45877;-69
2022/05/02 00:12:18;;;;;;;;;13.75;13.00;;;;;14.37;48.72;101688.25;4943463;28;45339;-68
2022/05/02 00:14:44;;;;;;;;;15.00;13.00;;;;;14.41;48.15;101683.63;4943550;28;45404;-68
2022/05/02 00:17:09;;;;;;;;;14.25;12.75;;;;;14.41;48.07;101681.81;4926063;28;45371;-69
2022/05/02 00:19:35;;;;;;;;;17.50;15.25;;;;;14.41;48.37;101673.88;4942993;28;46068;-68
2022/05/02 00:22:00;;;;;;;;;17.75;13.50;;;;;14.43;48.45;101677.28;4943449;28;45308;-69
2022/05/02 00:24:26;;;;;;;;;16.00;15.00;;;;;14.45;48.26;101677.16;4943049;28;45312;-68
2022/05/02 00:26:52;;;;;;;;;15.25;14.25;;;;;14.44;48.19;101673.66;4943307;28;45571;-68
2022/05/02 00:29:18;;;;;;;;;23.00;19.75;;;;;14.47;48.32;101672.69;4942998;28;45322;-69
2022/05/02 00:31:45;;;;;;;;;29.50;26.00;;;;;14.48;48.00;101669.09;4943014;28;45160;-69
2022/05/02 00:34:14;;;;;;;;;32.00;28.25;;;;;14.44;48.18;101668.38;4925444;28;45351;-68
2022/05/02 00:36:40;;;;;;;;;43.25;31.75;;;;;14.43;48.39;101666.66;4943265;28;45478;-68
2022/05/02 00:39:06;;;;;;;;;39.50;31.00;;;;;14.41;48.29;101660.63;4942726;28;45337;-68
2022/05/02 00:41:32;;;;;;;;;39.25;34.25;;;;;14.42;48.17;101672.06;4942778;28;45271;-68
2022/05/02 00:43:57;;;;;;;;;44.25;36.25;;;;;14.41;48.21;101667.72;4942834;28;45446;-68
2022/05/02 00:46:24;;;;;;;;;42.00;35.50;;;;;14.39;48.38;101661.66;4943302;28;45241;-69
2022/05/02 00:48:52;;;;;;;;;44.00;35.50;;;;;14.39;48.31;101659.00;4942386;28;45467;-69
2022/05/02 00:51:18;;;;;;;;;37.75;34.25;;;;;14.38;48.23;101657.31;4943261;28;45331;-68
2022/05/02 00:53:49;;;;;;;;;42.75;35.50;;;;;14.38;48.18;101662.63;4942870;28;45467;-69
2022/05/02 00:56:20;;;;;;;;;37.25;29.50;;;;;14.38;48.32;101652.00;4942841;28;45534;-69
2022/05/02 00:58:49;;;;;;;;;37.50;32.00;;;;;14.37;48.35;101644.97;4925376;28;46759;-69
2022/05/02 01:01:14;;;;;;;;;33.00;29.50;;;;;14.39;48.47;101640.47;4936907;28;45364;-69
2022/05/02 01:03:40;;;;;;;;;26.25;26.00;;;;;14.39;48.37;101637.81;4942660;28;45479;-70
2022/05/02 01:08:52;;;;;;;;;22.75;21.50;;;;;14.35;48.22;101631.81;4942542;28;45364;-68
2022/05/02 01:11:18;;;;;;;;;20.25;19.25;;;;;14.31;48.30;101630.31;4942454;28;45353;-68
2022/05/02 01:13:47;;;;;;;;;26.75;24.00;;;;;14.29;48.62;101623.38;4942708;28;45423;-67
2022/05/02 01:16:27;;;;;;;;;29.25;24.75;;;;;14.26;48.43;101629.72;4942694;28;45388;-68
2022/05/02 01:18:56;;;;;;;;;26.75;22.75;;;;;14.25;48.50;101628.88;4942107;28;45389;-67
2022/05/02 01:21:25;;;;;;;;;22.75;21.25;;;;;14.23;48.46;101625.47;4942329;28;45198;-68
2022/05/02 01:23:52;;;;;;;;;25.25;23.50;;;;;14.21;48.83;101621.19;4942534;28;45255;-68
2022/05/02 01:26:18;;;;;;;;;17.75;16.00;;;;;14.19;48.55;101618.66;4942476;28;45305;-68
2022/05/02 01:28:55;;;;;;;;;20.75;18.00;;;;;14.18;48.92;101619.59;4942367;28;45269;-69
2022/05/02 01:31:21;;;;;;;;;18.00;16.25;;;;;14.16;48.57;101621.50;4942553;28;45518;-68
2022/05/02 01:33:48;;;;;;;;;20.00;17.00;;;;;14.14;48.70;101620.75;4942324;28;45358;-68
2022/05/02 01:36:14;;;;;;;;;17.75;16.75;;;;;14.13;48.54;101618.16;4942786;28;45490;-68
2022/05/02 01:38:41;;;;;;;;;19.50;18.25;;;;;14.11;48.95;101623.56;4942070;28;45323;-68
2022/05/02 01:41:07;;;;;;;;;17.00;16.50;;;;;14.10;48.66;101618.34;4942004;28;45354;-68
2022/05/02 01:43:34;;;;;;;;;22.50;18.00;;;;;14.05;48.96;101621.25;4945370;28;45496;-67
2022/05/02 01:46:01;;;;;;;;;16.75;15.75;;;;;14.03;48.91;101627.59;4945927;28;45202;-68
2022/05/02 01:48:27;;;;;;;;;17.50;15.00;;;;;13.98;49.05;101619.91;4945500;28;45286;-68
2022/05/02 01:50:53;;;;;;;;;22.00;20.00;;;;;13.96;49.08;101622.66;4945573;28;45348;-68
2022/05/02 01:53:20;;;;;;;;;18.25;15.75;;;;;13.94;49.05;101623.72;4945761;28;45342;-68
2022/05/02 01:55:45;;;;;;;;;22.25;19.50;;;;;13.89;49.43;101626.63;4945822;28;45239;-68
2022/05/02 01:58:11;;;;;;;;;21.00;19.75;;;;;13.86;49.35;101620.66;4945485;28;46155;-68
2022/05/02 02:00:36;;;;;;;;;20.75;16.50;;;;;13.86;49.11;101625.97;4945942;28;45391;-68
2022/05/02 02:03:02;;;;;;;;;22.75;19.25;;;;;13.87;49.47;101627.66;4945321;28;45395;-68
2022/05/02 02:08:11;;;;;;;;;17.50;16.75;;;;;13.82;49.32;101616.47;4945114;28;45807;-68
2022/05/02 02:10:38;;;;;;;;;23.00;18.50;;;;;13.79;49.52;101620.16;4945222;28;45389;-68
2022/05/02 02:13:05;;;;;;;;;22.00;18.00;;;;;13.78;49.55;101622.91;4945407;28;45472;-68
2022/05/02 02:15:30;;;;;;;;;27.75;19.50;;;;;13.78;49.53;101622.91;4945498;28;45423;-68
2022/05/02 02:17:56;;;;;;;;;22.00;18.75;;;;;13.77;49.51;101624.72;4944791;28;45301;-68
2022/05/02 02:20:21;;;;;;;;;21.25;20.00;;;;;13.74;49.66;101616.06;4945153;28;45165;-69
2022/05/02 02:22:47;;;;;;;;;22.75;21.25;;;;;13.73;49.83;101623.16;4945100;28;45222;-68
2022/05/02 02:25:12;;;;;;;;;22.00;19.75;;;;;13.74;49.82;101619.56;4945088;28;45474;-69
2022/05/02 02:27:38;;;;;;;;;21.00;17.50;;;;;13.74;49.80;101616.94;4944801;28;45245;-68
2022/05/02 02:30:04;;;;;;;;;29.75;18.50;;;;;13.75;49.58;101615.16;4945080;28;45305;-69
2022/05/02 02:32:30;;;;;;;;;23.50;21.00;;;;;13.73;49.59;101612.56;4944783;28;45283;-68
2022/05/02 02:34:56;;;;;;;;;21.75;15.00;;;;;13.73;49.93;101609.94;4945112;28;45479;-68
2022/05/02 02:37:21;;;;;;;;;22.75;21.75;;;;;13.74;49.66;101602.84;4944748;28;46000;-68
2022/05/02 02:39:47;;;;;;;;;21.25;19.25;;;;;13.69;49.90;101600.47;4944763;28;45368;-68
2022/05/02 02:42:12;;;;;;;;;24.00;20.50;;;;;13.68;49.93;101601.41;4944689;28;45426;-68
2022/05/02 02:44:38;;;;;;;;;21.25;20.25;;;;;13.68;50.05;101604.06;4944889;28;45300;-68
2022/05/02 02:47:04;;;;;;;;;21.00;16.75;;;;;13.67;50.06;101600.56;4944419;28;45304;-68
2022/05/02 02:49:29;;;;;;;;;25.00;22.75;;;;;13.65;50.07;101602.44;4944730;28;45219;-68
2022/05/02 02:51:55;;;;;;;;;22.50;20.00;;;;;13.61;49.95;101598.28;4944896;28;45228;-68
2022/05/02 02:54:21;;;;;;;;;24.25;22.50;;;;;13.59;50.16;101601.97;4943556;28;45518;-68
2022/05/02 02:56:48;;;;;;;;;26.25;22.50;;;;;13.58;50.15;101603.72;4944392;28;46404;-68
2022/05/02 02:59:13;;;;;;;;;25.25;21.75;;;;;13.57;50.10;101598.53;4944633;28;45342;-68
2022/05/02 03:01:40;;;;;;;;;25.50;22.75;;;;;13.56;50.23;101591.53;4945054;28;45315;-68
2022/05/02 03:06:52;;;;;;;;;24.00;22.50;;;;;13.52;50.38;101596.16;4944411;28;45808;-69
2022/05/02 03:09:17;;;;;;;;;27.50;20.25;;;;;13.49;50.44;101587.53;4944203;28;45325;-68
2022/05/02 03:11:43;;;;;;;;;24.25;21.75;;;;;13.52;50.33;101584.72;4944554;28;45319;-69
2022/05/02 03:14:09;;;;;;;;;29.25;21.50;;;;;13.49;50.16;101585.72;4944535;28;45511;-69
2022/05/02 03:16:34;;;;;;;;;25.50;20.00;;;;;13.49;50.51;101575.16;4944449;28;46180;-69
2022/05/02 03:19:00;;;;;;;;;30.00;26.25;;;;;13.48;50.31;101578.75;4943899;28;45365;-68
2022/05/02 03:21:25;;;;;;;;;21.25;20.50;;;;;13.46;50.27;101577.13;4944734;28;45236;-69
2022/05/02 03:23:51;;;;;;;;;25.00;21.75;;;;;13.41;50.54;101570.28;4944370;28;45453;-69
2022/05/02 03:26:16;;;;;;;;;31.00;24.25;;;;;13.38;50.36;101573.13;4944060;28;46035;-69
2022/05/02 03:28:42;;;;;;;;;24.75;21.25;;;;;13.34;50.66;101573.38;4926756;28;45309;-69
2022/05/02 03:31:07;;;;;;;;;24.00;20.75;;;;;13.30;50.69;101570.06;4943721;28;45341;-69
2022/05/02 03:33:33;;;;;;;;;23.50;22.00;;;;;13.30;50.67;101567.44;4944178;28;45161;-69
2022/05/02 03:35:58;;;;;;;;;28.25;24.75;;;;;13.28;50.70;101566.66;4943965;28;45368;-69
2022/05/02 03:38:24;;;;;;;;;29.25;25.00;;;;;13.24;50.77;101565.13;4944145;28;45544;-69
2022/05/02 03:40:49;;;;;;;;;26.50;21.25;;;;;13.25;51.08;101565.97;4943536;28;45336;-69
2022/05/02 03:43:15;;;;;;;;;24.50;22.75;;;;;13.25;51.11;101571.25;4944171;28;45328;-69
2022/05/02 03:45:41;;;;;;;;;29.75;26.00;;;;;13.24;50.96;101566.91;4926358;28;45448;-69
2022/05/02 03:48:07;;;;;;;;;23.50;20.75;;;;;13.22;51.08;101567.00;4943786;28;45409;-69
2022/05/02 03:50:32;;;;;;;;;26.50;22.75;;;;;13.23;51.28;101560.78;4943860;28;45230;-69
2022/05/02 03:52:58;;;;;;;;;26.75;23.75;;;;;13.22;50.99;101564.38;4943931;28;45354;-69
2022/05/02 03:55:25;;;;;;;;;23.50;22.00;;;;;13.20;51.07;101565.41;4943487;28;46160;-69
2022/05/02 03:57:50;;;;;;;;;35.50;27.25;;;;;13.17;51.23;101561.09;4943901;28;45358;-67
2022/05/02 04:00:16;;;;;;;;;25.00;23.00;;;;;13.14;51.17;101563.91;4944174;28;45459;-67
2022/05/02 04:02:42;;;;;;;;;28.75;25.50;;;;;13.18;51.24;101570.72;4943521;28;45453;-68
2022/05/02 04:05:08;;;;;;;;;28.00;28.00;;;;;13.14;51.32;101562.13;4943107;28;45222;-70
2022/05/02 04:07:34;;;;;;;;;32.75;27.75;;;;;13.14;51.40;101558.63;4943684;28;45412;-70
2022/05/02 04:10:00;;;;;;;;;29.50;24.25;;;;;13.19;51.17;101569.78;4943526;28;45459;-67
2022/05/02 04:12:26;;;;;;;;;28.50;25.00;;;;;13.17;51.43;101566.38;4943774;28;45255;-70
2022/05/02 04:14:52;;;;;;;;;35.25;31.50;;;;;13.19;51.40;101561.00;4943424;28;46510;-68
2022/05/02 04:17:18;;;;;;;;;30.50;25.75;;;;;13.19;51.23;101561.84;4943481;28;45358;-68
2022/05/02 04:19:43;;;;;;;;;27.50;22.75;;;;;13.23;51.37;101567.88;4943421;28;45317;-68
2022/05/02 04:22:09;;;;;;;;;32.75;26.50;;;;;13.25;51.61;101561.53;4943689;28;45297;-68
2022/05/02 04:24:34;;;;;;;;;30.50;26.75;;;;;13.24;51.69;101569.56;4943182;28;45877;-68
2022/05/02 04:27:00;;;;;;;;;29.00;26.25;;;;;13.22;52.14;101561.72;4943306;28;45427;-68
2022/05/02 04:29:26;;;;;;;;;37.75;32.25;;;;;13.19;52.00;101559.19;4943305;28;45280;-70
2022/05/02 04:31:51;;;;;;;;;37.25;33.25;;;;;13.17;52.27;101569.03;4943220;28;45172;-68
2022/05/02 04:34:17;;;;;;;;;33.00;29.75;;;;;13.18;52.02;101568.09;4943080;28;46196;-69
2022/05/02 04:36:42;;;;;;;;;38.75;28.75;;;;;13.14;52.15;101567.41;4943241;28;45331;-69
2022/05/02 04:39:08;;;;;;;;;28.50;25.25;;;;;13.12;52.34;101561.38;4943125;28;45272;-69
2022/05/02 04:41:34;;;;;;;;;29.25;28.25;;;;;13.15;52.14;101565.63;4943074;28;46071;-70
2022/05/02 04:43:59;;;;;;;;;34.00;28.50;;;;;13.17;52.27;101571.66;4942735;28;45369;-69
2022/05/02 04:46:26;;;;;;;;;32.00;26.75;;;;;13.16;52.35;101567.31;4943124;28;45347;-70
2022/05/02 04:48:52;;;;;;;;;35.50;32.25;;;;;13.15;51.88;101573.56;4942729;28;45315;-69
2022/05/02 04:51:18;;;;;;;;;33.50;31.75;;;;;13.13;52.01;101571.00;4943218;28;45268;-70
2022/05/02 04:53:43;;;;;;;;;29.50;23.75;;;;;13.16;52.34;101572.63;4942670;28;45332;-70
2022/05/02 04:56:09;;;;;;;;;33.75;28.75;;;;;13.14;51.89;101563.91;4942932;28;45278;-69
2022/05/02 04:58:34;;;;;;;;;33.25;30.25;;;;;13.10;52.13;101573.81;4942812;28;45230;-69
2022/05/02 05:01:00;;;;;;;;;30.50;27.00;;;;;13.10;52.08;101576.44;4943555;28;45238;-70
2022/05/02 05:03:25;;;;;;;;;28.25;25.50;;;;;13.15;51.94;101576.22;4943314;28;45230;-70
2022/05/02 05:05:54;;;;;;;;;32.50;29.75;;;;;13.18;52.09;101569.88;4942845;28;45325;-70
2022/05/02 05:08:19;;;;;;;;;41.00;31.00;;;;;13.21;52.35;101575.03;4942832;28;45512;-69
2022/05/02 05:11:01;;;;;;;;;36.00;30.25;;;;;13.25;52.17;101573.91;4942746;28;45274;-69
2022/05/02 05:13:43;;;;;;;;;35.50;31.50;;;;;13.29;52.43;101571.03;4942648;28;46080;-69
2022/05/02 05:16:31;;;;;;;;;38.75;32.75;;;;;13.32;52.30;101580.56;4942038;28;45290;-69
2022/05/02 05:19:15;;;;;;;;;37.25;33.00;;;;;13.29;52.02;101572.81;4942428;28;45439;-69
2022/05/02 05:22:20;;;;;;;;;40.25;30.75;;;;;13.32;51.90;101576.13;4942789;28;45244;-70
2022/05/02 05:25:15;;;;;;;;;42.75;35.00;;;;;13.34;52.06;101574.22;4941560;28;45292;-69
2022/05/02 05:27:49;;;;;;;;;40.00;36.50;;;;;13.36;51.91;101576.81;4941186;28;45266;-69
2022/05/02 05:30:20;;;;;;;;;39.00;33.00;;;;;13.34;51.69;101568.94;4942642;28;45316;-70
2022/05/02 05:32:48;;;;;;;;;42.75;34.00;;;;;13.36;51.75;101568.88;4942426;28;45371;-70
2022/05/02 05:35:31;;;;;;;;;42.50;35.00;;;;;13.37;51.63;101573.22;4942263;28;45419;-69
2022/05/02 05:38:07;;;;;;;;;34.75;32.50;;;;;13.39;51.78;101569.53;4942553;28;45377;-70
2022/05/02 05:40:39;;;;;;;;;36.25;31.75;;;;;13.43;51.37;101572.00;4941138;28;45362;-69
2022/05/02 05:43:26;;;;;;;;;38.75;34.00;;;;;13.45;51.31;101568.34;4942130;28;45357;-70
2022/05/02 05:46:16;;;;;;;;;39.25;33.00;;;;;13.48;51.52;101569.94;4942258;28;46309;-69
2022/05/02 05:48:59;;;;;;;;;47.25;36.75;;;;;13.52;51.64;101569.69;4941943;28;45286;-70
2022/05/02 05:51:48;;;;;;;;;44.00;33.25;;;;;13.53;51.04;101567.91;4942256;28;45268;-69
2022/05/02 05:54:55;;;;;;;;;42.75;33.50;;;;;13.53;50.91;101571.41;4942164;28;45239;-69
2022/05/02 05:57:46;;;;;;;;;42.00;37.00;;;;;13.52;50.87;101568.84;4929766;28;45436;-69
2022/05/02 06:00:13;;;;;;;;;38.25;31.50;;;;;13.47;51.22;101577.03;4942120;28;45226;-69
2022/05/02 06:02:50;;;;;;;;;34.75;32.00;;;;;13.51;50.94;101572.41;4941756;28;45168;-69
2022/05/02 06:05:16;;;;;;;;;48.00;36.00;;;;;13.49;51.11;101569.84;4942012;28;45452;-69
2022/05/02 06:07:45;;;;;;;;;36.00;31.75;;;;;13.51;51.06;101573.28;4941730;28;45420;-69
2022/05/02 06:10:11;;;;;;;;;39.25;34.50;;;;;13.53;51.02;101579.34;4941816;28;45237;-69
2022/05/02 06:12:38;;;;;;;;;38.50;34.00;;;;;13.59;51.06;101575.50;4941946;28;45471;-69
2022/05/02 06:20:39;;;;;;;;;39.00;34.00;;;;;13.66;50.88;101590.91;4941861;28;45254;-69
2022/05/02 06:23:10;;;;;;;;;45.75;32.75;;;;;13.68;50.75;101578.44;4941958;28;45350;-69
2022/05/02 06:25:37;;;;;;;;;37.25;30.00;;;;;13.74;50.74;101586.94;4941839;28;45386;-69
2022/05/02 06:28:05;;;;;;;;;37.50;34.25;;;;;13.79;50.91;101583.09;4942563;28;46029;-69
2022/05/02 06:30:34;;;;;;;;;39.25;33.75;;;;;13.83;50.84;101583.78;4944755;28;45232;-69
2022/05/02 06:33:04;;;;;;;;;36.75;33.50;;;;;13.84;50.81;101582.84;4944310;28;45254;-69
2022/05/02 06:35:36;;;;;;;;;42.25;34.00;;;;;13.85;50.78;101587.19;4944929;28;45258;-69
2022/05/02 06:38:10;;;;;;;;;49.00;35.00;;;;;13.87;50.81;101580.00;4927112;28;47175;-69
2022/05/02 06:40:49;;;;;;;;;47.25;37.50;;;;;13.87;50.57;101580.00;4944469;28;45335;-69
2022/05/02 06:43:39;;;;;;;;;36.75;32.50;;;;;13.87;50.52;101582.63;4944801;28;45512;-70
2022/05/02 06:46:25;;;;;;;;;41.00;35.75;;;;;13.89;50.61;101581.59;4944926;28;45366;-69
2022/05/02 06:48:56;;;;;;;;;40.25;33.00;;;;;13.96;50.66;101584.72;4944197;28;45494;-69
2022/05/02 06:51:27;;;;;;;;;31.75;31.00;;;;;14.00;50.43;101588.91;4944410;28;45267;-69
2022/05/02 06:54:30;;;;;;;;;37.75;33.50;;;;;14.03;50.47;101586.06;4932010;28;45326;-69
2022/05/02 06:57:07;;;;;;;;;47.00;35.25;;;;;14.10;50.15;101584.75;4925596;28;45727;-69
2022/05/02 06:59:38;;;;;;;;;38.25;35.50;;;;;14.14;50.02;101578.34;4944310;28;45308;-69
2022/05/02 07:02:24;;;;;;;;;41.00;34.75;;;;;14.20;49.84;101585.91;4944476;28;45249;-69
2022/05/02 07:04:52;;;;;;;;;38.25;32.75;;;;;14.25;49.95;101588.28;4944433;28;45546;-69
2022/05/02 07:07:26;;;;;;;;;35.75;33.00;;;;;14.33;49.86;101590.47;4944601;28;45261;-69
2022/05/02 07:09:57;;;;;;;;;36.25;31.75;;;;;14.36;49.25;101590.25;4944132;28;45898;-69
2022/05/02 07:12:24;;;;;;;;;33.75;30.75;;;;;14.34;48.90;101593.00;4944545;28;45399;-69
2022/05/02 07:15:08;;;;;;;;;40.25;33.75;;;;;14.33;48.79;101591.31;4944513;28;45341;-68
2022/05/02 07:17:44;;;;;;;;;39.25;33.75;;;;;14.30;49.06;101593.28;4944160;28;45305;-69
2022/05/02 07:20:31;;;;;;;;;36.00;33.00;;;;;14.31;48.91;101593.22;4944070;28;46198;-69
2022/05/02 07:23:32;;;;;;;;;41.50;36.25;;;;;14.34;48.73;101589.50;4943892;28;45323;-69
2022/05/02 07:26:06;;;;;;;;;34.75;30.00;;;;;14.35;48.64;101589.41;4944298;28;45222;-68
2022/05/02 07:28:44;;;;;;;;;43.00;35.00;;;;;14.39;48.79;101585.66;4944451;28;45269;-70
2022/05/02 07:31:11;;;;;;;;;45.25;36.00;;;;;14.41;48.73;101589.03;4943926;28;46408;-69
2022/05/02 07:33:38;;;;;;;;;43.50;35.75;;;;;14.44;48.89;101590.66;4943930;28;45471;-69
2022/05/02 07:36:05;;;;;;;;;38.75;33.00;;;;;14.52;49.06;101593.69;4944199;28;45349;-69
2022/05/02 07:38:33;;;;;;;;;40.75;33.50;;;;;14.56;48.96;101589.06;4944005;28;45245;-69
2022/05/02 07:43:52;;;;;;;;;42.75;33.50;;;;;14.63;48.60;101599.22;4943970;28;45467;-69
2022/05/02 07:46:21;;;;;;;;;36.00;28.75;;;;;14.68;48.91;101597.09;4944142;28;45245;-69
2022/05/02 07:48:51;;;;;;;;;42.00;35.00;;;;;14.74;48.53;101591.41;4943563;28;45500;-69
2022/05/02 07:51:18;;;;;;;;;42.50;35.25;;;;;14.79;48.57;101592.00;4943920;28;46280;-69
2022/05/02 07:53:44;;;;;;;;;45.00;36.75;;;;;14.85;48.12;101597.84;4943776;28;45308;-69
2022/05/02 07:56:10;;;;;;;;;39.00;33.50;;;;;14.91;48.19;101597.44;4943876;28;45482;-69
2022/05/02 07:58:40;;;;;;;;;41.50;34.50;;;;;14.93;48.56;101596.44;4943715;28;45415;-69
2022/05/02 08:01:05;;;;;;;;;42.50;35.25;;;;;14.97;48.25;101599.72;4943963;28;46010;-69
2022/05/02 08:03:30;;;;;;;;;36.50;33.00;;;;;14.98;47.89;101599.63;4943275;28;45275;-68
2022/05/02 08:06:06;;;;;;;;;40.00;34.00;;;;;15.02;47.95;101603.78;4943835;28;45467;-69
2022/05/02 08:08:41;;;;;;;;;39.50;35.75;;;;;15.08;47.92;101597.22;4943544;28;45534;-70
2022/05/02 08:11:18;;;;;;;;;40.75;35.75;;;;;15.14;48.04;101607.44;4943207;28;46276;-69
2022/05/02 08:14:02;;;;;;;;;38.50;34.50;;;;;15.24;47.83;101603.22;4943435;28;45230;-68
2022/05/02 08:16:33;;;;;;;;;49.25;39.00;;;;;15.28;47.68;101607.41;4943178;28;45176;-69
2022/05/02 08:19:28;;;;;;;;;41.00;36.00;;;;;15.28;47.68;101602.09;4943396;28;45331;-69
2022/05/02 08:28:36;;;;;;;;;47.00;37.00;;;;;15.39;47.65;101593.41;4943608;28;45395;-69
2022/05/02 08:31:45;;;;;;;;;45.00;35.50;;;;;15.44;47.70;101596.63;4926153;28;45405;-67
2022/05/02 08:34:29;;;;;;;;;38.75;35.75;;;;;15.49;47.70;101597.19;4916378;28;46109;-68
2022/05/02 08:37:09;;;;;;;;;47.25;37.75;;;;;15.56;47.24;101592.31;4943168;28;45224;-68
2022/05/02 08:39:51;;;;;;;;;50.75;41.50;;;;;15.57;48.04;101588.72;4943248;28;45375;-68
2022/05/02 08:42:54;;;;;;;;;43.00;36.25;;;;;15.66;47.66;101589.94;4942921;28;45386;-69
2022/05/02 08:45:57;;;;;;;;;45.25;37.00;;;;;15.61;47.79;101596.41;4939304;28;45316;-68
2022/05/02 08:48:25;;;;;;;;;47.25;37.75;;;;;15.67;47.63;101588.97;4925388;28;45258;-69
2022/05/02 08:51:09;;;;;;;;;46.75;34.75;;;;;15.67;47.47;101588.97;4943049;28;45268;-69
2022/05/02 08:53:54;;;;;;;;;48.25;39.50;;;;;15.70;47.74;101588.75;4942999;28;45230;-69
2022/05/02 08:56:43;;;;;;;;;49.25;38.00;;;;;15.73;47.67;101593.88;4942638;28;45409;-69
2022/05/02 08:59:11;;;;;;;;;42.25;36.25;;;;;15.82;47.71;101582.63;4942463;28;45362;-68
2022/05/02 09:02:06;;;;;;;;;47.25;38.25;;;;;15.95;47.07;101593.25;4942419;28;45176;-67
2022/05/02 09:04:31;;;;;;;;;49.00;41.00;;;;;16.00;47.35;101577.88;4942674;28;45326;-69
2022/05/02 09:07:15;;;;;;;;;53.00;37.00;;;;;16.05;47.51;101581.91;4942672;28;45149;-70
2022/05/02 09:10:20;;;;;;;;;42.50;36.50;;;;;16.21;47.43;101591.50;4939824;28;45333;-69
2022/05/02 09:12:58;;;;;;;;;50.75;40.50;;;;;16.28;46.95;101588.31;4924897;28;45209;-68
2022/05/02 09:15:53;;;;;;;;;46.00;37.25;;;;;16.41;46.89;101581.16;4925581;28;45470;-69
2022/05/02 09:18:24;;;;;;;;;49.50;38.25;;;;;16.48;46.31;101579.75;4942552;28;45383;-70
2022/05/02 09:21:10;;;;;;;;;49.25;38.50;;;;;16.52;46.99;101577.75;4942360;28;45211;-68
2022/05/02 09:23:42;;;;;;;;;38.50;34.00;;;;;16.63;46.46;101576.97;4942847;28;45313;-69
2022/05/02 09:26:29;;;;;;;;;46.25;38.25;;;;;16.77;46.46;101574.22;4942356;28;45384;-69
2022/05/02 09:29:29;;;;;;;;;48.50;39.00;;;;;16.85;46.36;101563.88;4942220;28;45286;-68
2022/05/02 09:31:58;;;;;;;;;52.00;39.25;;;;;16.92;46.12;101569.59;4891237;28;45778;-68
2022/05/02 09:34:56;;;;;;;;;46.00;37.00;;;;;17.01;46.06;101563.59;4942455;28;45325;-69
2022/05/02 09:37:37;;;;;;;;;47.50;37.00;;;;;17.13;45.75;101561.84;4942225;28;45401;-69
2022/05/02 09:40:17;;;;;;;;;41.50;37.25;;;;;17.24;45.50;101559.25;4942019;28;45447;-69
2022/05/02 09:42:57;;;;;;;;;44.50;35.25;;;;;17.30;45.49;101559.66;4942069;28;45410;-68
2022/05/02 09:51:53;;;;;;;;;49.25;38.25;;;;;17.47;44.80;101561.03;4942009;28;45945;-67
2022/05/02 09:57:59;;;;;;;;;41.50;37.00;;;;;17.51;44.65;101554.50;4941989;28;45264;-68
2022/05/02 10:04:08;;;;;;;;;50.75;40.25;;;;;17.59;44.92;101549.44;4921514;28;45339;-68
2022/05/02 10:06:46;;;;;;;;;42.00;35.25;;;;;17.65;44.25;101553.47;4945375;28;45484;-68
2022/05/02 10:09:47;;;;;;;;;44.25;37.25;;;;;17.73;44.65;101547.59;4945379;28;45560;-69
2022/05/02 10:12:41;;;;;;;;;46.00;36.50;;;;;17.83;44.47;101545.91;4945287;28;45589;-69
2022/05/02 10:15:24;;;;;;;;;40.50;34.25;;;;;17.94;44.38;101548.63;4940214;28;46185;-69
2022/05/02 10:18:13;;;;;;;;;43.00;35.75;;;;;18.03;43.39;101550.56;4944932;28;45322;-69
2022/05/02 10:21:15;;;;;;;;;49.25;36.50;;;;;18.03;43.40;101539.91;4944879;28;45282;-69
2022/05/02 10:23:56;;;;;;;;;34.25;31.25;;;;;18.14;43.27;101542.56;4945293;28;45234;-69
2022/05/02 10:26:50;;;;;;;;;34.25;28.00;;;;;18.24;43.14;101541.84;4944907;28;45406;-69
2022/05/02 10:29:49;;;;;;;;;35.75;32.50;;;;;18.29;42.74;101542.34;4944815;28;45535;-69
2022/05/02 10:32:41;;;;;;;;;46.75;36.00;;;;;18.29;43.17;101540.50;4944936;28;45395;-68
2022/05/02 10:35:13;;;;;;;;;48.75;35.75;;;;;18.36;43.34;101540.88;4944958;28;45823;-69
2022/05/02 10:37:43;;;;;;;;;39.00;32.50;;;;;18.41;43.30;101533.38;4944740;28;46229;-68
2022/05/02 10:40:12;;;;;;;;;36.75;34.00;;;;;18.50;43.20;101532.63;4944560;28;45333;-67
2022/05/02 10:42:46;;;;;;;;;41.00;34.25;;;;;18.62;42.85;101541.47;4944689;28;45334;-68
2022/05/02 10:45:14;;;;;;;;;36.00;33.00;;;;;18.73;42.64;101536.16;4943491;28;45416;-68
2022/05/02 10:47:44;;;;;;;;;37.25;31.75;;;;;18.82;42.41;101532.75;4944425;28;45356;-68
2022/05/02 10:50:19;;;;;;;;;36.00;31.00;;;;;18.90;42.42;101538.28;4944696;28;45246;-67
2022/05/02 10:53:03;;;;;;;;;38.25;30.25;;;;;18.87;41.80;101527.84;4944805;28;45450;-68
2022/05/02 10:55:33;;;;;;;;;43.00;35.00;;;;;18.81;41.74;101527.53;4944932;28;45307;-68
2022/05/02 10:58:04;;;;;;;;;41.00;34.00;;;;;18.74;41.74;101532.50;4944277;28;46200;-68
2022/05/02 11:00:31;;;;;;;;;37.25;32.25;;;;;18.66;42.08;101522.44;4944572;28;45332;-67
2022/05/02 11:03:21;;;;;;;;;35.25;33.00;;;;;18.65;41.71;101523.44;4944339;28;45307;-68
2022/05/02 11:06:16;;;;;;;;;34.50;30.50;;;;;18.75;42.19;101515.53;4944783;28;45312;-67
2022/05/02 11:08:51;;;;;;;;;39.00;34.00;;;;;18.90;42.40;101521.44;4944523;28;45600;-68
2022/05/02 11:11:50;;;;;;;;;36.75;30.50;;;;;18.90;41.93;101511.59;4944264;28;45400;-68
2022/05/02 11:14:57;;;;;;;;;39.25;31.75;;;;;18.91;41.94;101521.31;4905253;28;45270;-68
2022/05/02 11:18:07;;;;;;;;;32.00;29.75;;;;;18.93;41.93;101503.31;4939614;28;45642;-68
2022/05/02 11:20:59;;;;;;;;;33.25;30.25;;;;;19.02;41.99;101509.72;4944170;28;45455;-68
2022/05/02 11:23:39;;;;;;;;;40.75;33.00;;;;;19.13;41.90;101504.38;4944094;28;45362;-69
2022/05/02 11:26:05;;;;;;;;;36.25;32.50;;;;;19.10;41.32;101501.09;4944112;28;45394;-67
2022/05/02 11:28:47;;;;;;;;;33.25;30.25;;;;;19.03;41.45;101499.88;4944304;28;45541;-68
2022/05/02 11:31:23;;;;;;;;;34.75;28.75;;;;;19.03;41.97;101502.56;4943983;28;46371;-69
2022/05/02 11:34:10;;;;;;;;;34.75;31.00;;;;;19.11;41.90;101500.94;4943950;28;45268;-69
2022/05/02 11:36:43;;;;;;;;;34.00;27.75;;;;;19.27;41.75;101502.34;4944260;28;45255;-66
2022/05/02 11:39:12;;;;;;;;;37.00;30.25;;;;;19.34;41.28;101503.53;4944077;28;45381;-68
2022/05/02 11:41:43;;;;;;;;;30.25;25.50;;;;;19.27;41.10;101495.16;4926357;28;47017;-68
2022/05/02 11:44:12;;;;;;;;;28.25;26.50;;;;;19.24;40.94;101498.13;4943765;28;45458;-68
2022/05/02 11:46:57;;;;;;;;;30.00;29.00;;;;;19.30;41.68;101486.91;4943778;28;45316;-69
2022/05/02 11:49:52;;;;;;;;;37.25;30.50;;;;;19.39;41.17;101487.97;4944067;28;45214;-68
2022/05/02 11:52:31;;;;;;;;;36.00;29.00;;;;;19.49;41.05;101500.41;4926354;28;47284;-68
2022/05/02 11:54:58;;;;;;;;;35.50;31.00;;;;;19.40;40.76;101486.97;4943687;28;45325;-69
2022/05/02 11:57:31;;;;;;;;;35.25;24.75;;;;;19.33;41.35;101488.47;4926463;28;45393;-69
2022/05/02 12:00:07;;;;;;;;;30.00;25.00;;;;;19.24;41.33;101492.78;4943735;28;45248;-68
2022/05/02 12:02:56;;;;;;;;;35.00;32.50;;;;;19.23;41.34;101483.06;4943508;28;46095;-69
2022/05/02 12:05:41;;;;;;;;;35.50;28.50;;;;;19.28;41.05;101480.03;4943670;28;45333;-68
2022/05/02 12:08:09;;;;;;;;;28.50;24.50;;;;;19.25;40.54;101479.28;4943427;28;45190;-68
2022/05/02 12:10:45;;;;;;;;;26.75;23.00;;;;;19.34;40.37;101472.31;4943587;28;45510;-69
2022/05/02 12:13:20;;;;;;;;;28.75;25.75;;;;;19.53;41.25;101467.13;4943254;28;46092;-70